Time;durP1;ratioP1;P1;durP2;ratioP2;P2;SDS_P1;SDS_P2;PMS_P1;PMS_P2;Temp;Humidity;BMP_temperature;BMP_pressure;BME280_temperature;BME280_humidity;BME280_pressure;Samples;Min_cycle;Max_cycle;Signal;HPM_P1;HPM_P2
2022/11/18 00:00:47;;;;;;;5.70;3.08;;;;;;;7.73;95.66;99449.72;5061960;28;20145;-65
2022/11/18 00:03:13;;;;;;;4.78;2.38;;;;;;;7.71;95.79;99454.03;5057184;28;20320;-65
2022/11/18 00:05:38;;;;;;;5.60;2.67;;;;;;;7.70;95.72;99457.47;5051359;28;20283;-65
2022/11/18 00:08:04;;;;;;;8.93;2.70;;;;;;;7.68;95.92;99450.56;5054984;28;20088;-68
2022/11/18 00:10:29;;;;;;;6.53;2.47;;;;;;;7.65;96.06;99451.38;5048382;28;20067;-68
2022/11/18 00:15:38;;;;;;;6.95;2.50;;;;;;;7.63;96.15;99456.53;5053042;28;20294;-68
2022/11/18 00:18:03;;;;;;;7.65;2.50;;;;;;;7.63;96.33;99460.84;5054197;28;20024;-68
2022/11/18 00:20:29;;;;;;;7.43;3.00;;;;;;;7.61;96.27;99462.56;5062605;28;20043;-68
2022/11/18 00:22:54;;;;;;;4.60;2.53;;;;;;;7.61;96.57;99468.59;5050033;28;20060;-68
2022/11/18 00:25:19;;;;;;;5.63;2.63;;;;;;;7.60;96.21;99471.16;5056919;28;20017;-68
2022/11/18 00:27:44;;;;;;;7.30;3.13;;;;;;;7.58;96.49;99470.28;5062597;28;20234;-68
2022/11/18 00:30:10;;;;;;;6.78;2.40;;;;;;;7.58;96.55;99470.28;5059235;28;20032;-68
2022/11/18 00:32:35;;;;;;;7.57;2.60;;;;;;;7.56;96.61;99474.56;5060583;28;20168;-68
2022/11/18 00:35:01;;;;;;;7.00;2.70;;;;;;;7.55;96.64;99478.88;5049664;28;20013;-68
2022/11/18 00:37:26;;;;;;;8.30;3.17;;;;;;;7.55;96.67;99484.06;5058646;28;20271;-65
2022/11/18 00:39:51;;;;;;;11.60;3.03;;;;;;;7.55;96.91;99485.81;5056599;28;20107;-65
2022/11/18 00:45:00;;;;;;;7.75;2.70;;;;;;;7.56;97.25;99490.13;5059061;28;20023;-65
2022/11/18 00:47:25;;;;;;;6.85;2.50;;;;;;;7.56;97.53;99493.59;5063579;28;20052;-65
2022/11/18 00:49:50;;;;;;;7.85;2.92;;;;;;;7.59;97.62;99495.34;5061453;28;20013;-65
2022/11/18 00:52:16;;;;;;;5.15;2.40;;;;;;;7.61;97.68;99504.03;5052280;28;20235;-65
2022/11/18 00:54:41;;;;;;;6.65;2.65;;;;;;;7.64;97.67;99496.28;5065957;28;20030;-65
2022/11/18 00:57:06;;;;;;;9.18;3.03;;;;;;;7.66;97.69;99502.34;5062341;28;20321;-65
2022/11/18 00:59:31;;;;;;;6.22;2.72;;;;;;;7.66;97.35;99503.25;5062879;28;20043;-65
2022/11/18 01:01:57;;;;;;;5.55;2.80;;;;;;;7.67;97.44;99509.28;5060688;28;20071;-65
2022/11/18 01:04:22;;;;;;;7.80;2.70;;;;;;;7.68;97.27;99516.22;5062375;28;20297;-65
2022/11/18 01:06:47;;;;;;;7.97;2.88;;;;;;;7.69;97.48;99517.97;5061045;28;20071;-68
2022/11/18 01:09:13;;;;;;;5.43;2.72;;;;;;;7.71;97.60;99520.59;5058951;28;20025;-68
2022/11/18 01:14:25;;;;;;;6.15;2.70;;;;;;;7.71;97.64;99526.63;5054092;28;20071;-68
2022/11/18 01:16:57;;;;;;;7.10;2.87;;;;;;;7.73;97.45;99530.09;5056564;28;20131;-68
2022/11/18 01:19:23;;;;;;;7.75;2.55;;;;;;;7.73;97.46;99526.66;5061092;28;20279;-68
2022/11/18 01:21:48;;;;;;;8.05;2.83;;;;;;;7.73;97.77;99530.09;5053172;28;20089;-68
2022/11/18 01:24:14;;;;;;;7.38;2.45;;;;;;;7.74;97.55;99536.19;5063775;28;20024;-68
2022/11/18 01:26:39;;;;;;;6.45;2.95;;;;;;;7.72;97.70;99530.97;5063974;28;20179;-68
2022/11/18 01:29:04;;;;;;;7.03;2.90;;;;;;;7.73;97.68;99540.47;5065704;28;20190;-68
2022/11/18 01:31:30;;;;;;;8.25;2.90;;;;;;;7.74;97.81;99542.22;5052308;28;20052;-68
2022/11/18 01:33:55;;;;;;;5.45;2.47;;;;;;;7.76;98.02;99544.84;5062145;28;20268;-68
2022/11/18 01:36:23;;;;;;;5.65;2.45;;;;;;;7.78;98.00;99549.22;5065421;28;20017;-68
2022/11/18 01:38:49;;;;;;;6.32;2.33;;;;;;;7.80;98.00;99552.69;5066888;28;20084;-68
2022/11/18 01:41:16;;;;;;;7.38;2.70;;;;;;;7.81;98.17;99554.44;5065451;28;20024;-68
2022/11/18 01:43:51;;;;;;;6.40;2.58;;;;;;;7.81;98.22;99567.41;5064598;28;20040;-68
2022/11/18 01:46:17;;;;;;;7.10;2.70;;;;;;;7.83;98.22;99562.22;5065225;28;20102;-68
2022/11/18 01:48:45;;;;;;;6.45;2.85;;;;;;;7.83;98.36;99567.41;5065391;28;20025;-68
2022/11/18 01:51:15;;;;;;;5.10;2.53;;;;;;;7.84;98.09;99566.56;5065345;28;20091;-68
2022/11/18 01:53:46;;;;;;;6.40;3.17;;;;;;;7.84;98.10;99567.44;5047578;28;20011;-68
2022/11/18 01:56:20;;;;;;;7.35;2.83;;;;;;;7.86;98.44;99567.44;5074588;28;20017;-68
2022/11/18 01:58:51;;;;;;;8.10;2.65;;;;;;;7.88;98.30;99577.84;5065155;28;20132;-68
2022/11/18 02:01:17;;;;;;;6.13;2.38;;;;;;;7.89;98.19;99579.59;5047308;28;20012;-68
2022/11/18 02:03:44;;;;;;;6.95;2.50;;;;;;;7.90;98.33;99576.16;5065102;28;20163;-68
2022/11/18 02:06:10;;;;;;;5.47;2.70;;;;;;;7.91;98.13;99572.72;5063108;28;20028;-65
2022/11/18 02:08:36;;;;;;;8.18;2.63;;;;;;;7.94;98.30;99581.41;5063058;28;20021;-65
2022/11/18 02:11:03;;;;;;;6.20;2.70;;;;;;;7.95;98.52;99588.34;5043827;28;20013;-65
2022/11/18 02:13:31;;;;;;;6.55;2.75;;;;;;;7.96;98.42;99587.47;5054870;28;20029;-65
2022/11/18 02:16:05;;;;;;;5.03;2.42;;;;;;;7.97;98.29;99590.97;5061557;28;20024;-65
2022/11/18 02:18:51;;;;;;;5.20;2.40;;;;;;;7.99;98.63;99587.53;5062450;28;20025;-65
2022/11/18 02:21:41;;;;;;;8.25;2.95;;;;;;;8.02;98.43;99594.47;5061291;28;20071;-65
2022/11/18 02:24:21;;;;;;;8.30;2.60;;;;;;;8.05;98.49;99598.84;5058726;28;20096;-65
2022/11/18 02:27:17;;;;;;;6.45;2.53;;;;;;;8.07;98.26;99602.34;5054628;28;20025;-65
2022/11/18 02:29:58;;;;;;;7.18;2.42;;;;;;;8.08;98.41;99597.19;5060991;28;20068;-65
2022/11/18 02:32:31;;;;;;;7.32;2.40;;;;;;;8.10;98.11;99605.84;5050236;28;20021;-65
2022/11/18 02:35:20;;;;;;;7.10;2.40;;;;;;;8.11;98.28;99602.41;5056709;28;20120;-65
2022/11/18 02:37:53;;;;;;;8.75;2.85;;;;;;;8.12;98.08;99601.53;5056754;28;20021;-68
2022/11/18 02:40:26;;;;;;;6.30;2.42;;;;;;;8.13;98.40;99608.47;5063042;28;20186;-68
2022/11/18 02:43:03;;;;;;;7.03;2.35;;;;;;;8.15;98.06;99613.66;5063049;28;20045;-68
2022/11/18 02:45:30;;;;;;;7.18;2.47;;;;;;;8.15;98.05;99613.66;5058206;28;20048;-68
2022/11/18 02:47:58;;;;;;;6.03;2.65;;;;;;;8.16;98.27;99615.44;5060124;28;20021;-68
2022/11/18 02:50:27;;;;;;;9.85;3.85;;;;;;;8.16;98.22;99621.47;5060000;28;20049;-68
2022/11/18 02:52:57;;;;;;;7.25;2.67;;;;;;;8.17;97.85;99623.22;5050979;28;20220;-68
2022/11/18 02:55:26;;;;;;;9.18;2.60;;;;;;;8.17;98.38;99619.78;5061048;28;20023;-68
2022/11/18 02:57:52;;;;;;;5.32;2.45;;;;;;;8.17;98.10;99619.78;5055032;28;20088;-68
2022/11/18 03:00:18;;;;;;;6.53;2.72;;;;;;;8.18;98.35;99631.88;5051764;28;20283;-68
2022/11/18 03:02:46;;;;;;;8.05;2.70;;;;;;;8.18;98.34;99631.88;5053486;28;20031;-68
2022/11/18 03:05:39;;;;;;;6.72;2.65;;;;;;;8.19;98.48;99629.28;5038192;28;20136;-68
2022/11/18 03:08:15;;;;;;;8.02;2.60;;;;;;;8.21;98.36;99636.25;5036632;28;20021;-68
2022/11/18 03:10:57;;;;;;;7.45;2.97;;;;;;;8.21;98.46;99633.66;5062131;28;20111;-68
2022/11/18 03:13:28;;;;;;;7.35;2.83;;;;;;;8.21;98.46;99638.84;5053401;28;20021;-68
2022/11/18 03:16:14;;;;;;;9.25;3.22;;;;;;;8.23;98.48;99639.75;5058360;28;20024;-68
2022/11/18 03:18:52;;;;;;;5.30;2.40;;;;;;;8.23;98.48;99644.94;5062933;28;20031;-68
2022/11/18 03:21:28;;;;;;;7.25;2.45;;;;;;;8.25;98.38;99643.22;5063067;28;20029;-68
2022/11/18 03:23:59;;;;;;;7.78;2.90;;;;;;;8.25;98.60;99649.28;5061447;28;20056;-68
2022/11/18 03:26:30;;;;;;;8.43;2.83;;;;;;;8.25;98.76;99658.78;5052946;28;20020;-68
2022/11/18 03:29:17;;;;;;;6.72;2.72;;;;;;;8.24;98.79;99654.44;5054965;28;20084;-68
2022/11/18 03:31:48;;;;;;;9.90;2.75;;;;;;;8.25;98.81;99662.25;5060120;28;20025;-68
2022/11/18 03:34:23;;;;;;;6.00;2.83;;;;;;;8.25;98.56;99667.44;5059345;28;20020;-68
2022/11/18 03:36:54;;;;;;;6.93;2.90;;;;;;;8.25;99.23;99666.56;5056828;28;20290;-65
2022/11/18 03:39:21;;;;;;;6.55;2.92;;;;;;;8.24;99.35;99664.81;5034513;28;20021;-65
2022/11/18 03:41:52;;;;;;;7.45;2.80;;;;;;;8.24;99.59;99667.41;5057823;28;20029;-65
2022/11/18 03:44:25;;;;;;;7.93;2.80;;;;;;;8.23;99.62;99676.06;5059954;28;20016;-65
2022/11/18 03:46:59;;;;;;;5.68;2.40;;;;;;;8.23;99.44;99676.06;5062962;28;20028;-65
2022/11/18 03:49:30;;;;;;;8.73;2.65;;;;;;;8.22;99.69;99679.50;5062802;28;20021;-65
2022/11/18 03:52:05;;;;;;;7.97;2.45;;;;;;;8.22;99.47;99682.97;5063471;28;20025;-65
2022/11/18 03:54:32;;;;;;;6.90;2.67;;;;;;;8.22;99.45;99685.56;5038068;28;20082;-65
2022/11/18 03:57:29;;;;;;;7.78;2.83;;;;;;;8.24;99.52;99688.19;5058121;28;20092;-65
2022/11/18 04:00:04;;;;;;;6.85;2.90;;;;;;;8.22;99.76;99701.13;5054883;28;20294;-65
2022/11/18 04:02:29;;;;;;;8.90;3.20;;;;;;;8.22;99.69;99695.94;5062411;28;20021;-65
2022/11/18 04:04:57;;;;;;;8.90;2.97;;;;;;;8.19;99.48;99696.75;5059537;28;20093;-65
2022/11/18 04:07:35;;;;;;;8.25;2.72;;;;;;;8.18;99.89;99705.41;5061509;28;20016;-65
2022/11/18 04:10:07;;;;;;;7.22;2.63;;;;;;;8.18;99.53;99702.81;5058215;28;20025;-65
2022/11/18 04:12:38;;;;;;;8.38;2.97;;;;;;;8.18;99.63;99712.31;5057284;28;20040;-65
2022/11/18 04:15:04;;;;;;;10.63;3.05;;;;;;;8.18;99.56;99720.09;5052282;28;20067;-65
2022/11/18 04:17:30;;;;;;;6.53;2.70;;;;;;;8.17;99.40;99723.56;5058065;28;20013;-65
2022/11/18 04:19:55;;;;;;;8.68;3.20;;;;;;;8.16;99.53;99721.81;5056693;28;20051;-65
2022/11/18 04:22:20;;;;;;;7.20;2.53;;;;;;;8.13;99.55;99722.63;5063457;28;20031;-65
2022/11/18 04:24:46;;;;;;;7.60;3.20;;;;;;;8.11;99.26;99729.53;5065192;28;20084;-65
2022/11/18 04:27:11;;;;;;;7.70;3.20;;;;;;;8.11;99.41;99726.03;5060794;28;20126;-65
2022/11/18 04:29:37;;;;;;;7.30;2.95;;;;;;;8.09;99.02;99726.00;5053192;28;20025;-65
2022/11/18 04:32:03;;;;;;;8.30;3.20;;;;;;;8.08;99.14;99733.78;5061796;28;20025;-65
2022/11/18 04:34:29;;;;;;;6.38;3.10;;;;;;;8.06;98.75;99732.91;5065896;28;20033;-65
2022/11/18 04:36:55;;;;;;;8.45;3.22;;;;;;;8.01;98.73;99731.09;5066481;28;20085;-68
2022/11/18 04:39:20;;;;;;;9.88;3.15;;;;;;;7.98;98.67;99743.13;5067252;28;20029;-68
2022/11/18 04:41:55;;;;;;;5.78;3.10;;;;;;;7.95;98.70;99743.09;5064190;28;20029;-68
2022/11/18 04:44:28;;;;;;;10.00;3.42;;;;;;;7.91;98.64;99736.97;5064865;28;20085;-68
2022/11/18 04:46:55;;;;;;;6.63;3.47;;;;;;;7.86;98.52;99746.41;5066988;28;20017;-68
2022/11/18 04:49:22;;;;;;;12.40;3.53;;;;;;;7.83;98.52;99749.84;5047691;28;20024;-68
2022/11/18 04:51:47;;;;;;;12.15;3.70;;;;;;;7.80;98.31;99757.53;5066704;28;20028;-68
2022/11/18 04:54:13;;;;;;;10.43;3.80;;;;;;;7.78;98.76;99754.06;5066497;28;20183;-68
2022/11/18 04:56:39;;;;;;;10.65;3.65;;;;;;;7.76;98.62;99763.53;5066418;28;20254;-67
2022/11/18 04:59:05;;;;;;;9.50;3.70;;;;;;;7.74;98.63;99754.84;5065158;28;20027;-68
2022/11/18 05:01:31;;;;;;;9.23;3.30;;;;;;;7.72;98.36;99764.34;5066271;28;20171;-68
2022/11/18 05:03:56;;;;;;;8.20;3.50;;;;;;;7.69;98.59;99766.88;5071806;28;20020;-68
2022/11/18 05:06:21;;;;;;;8.02;3.50;;;;;;;7.66;98.69;99771.97;5066546;28;20047;-65
2022/11/18 05:08:47;;;;;;;7.75;3.67;;;;;;;7.61;98.54;99774.50;5066729;28;20031;-65
2022/11/18 05:13:56;;;;;;;8.38;3.70;;;;;;;7.55;98.88;99773.53;5064103;28;20093;-65
2022/11/18 05:16:21;;;;;;;8.40;3.40;;;;;;;7.53;98.53;99785.56;5058958;28;20025;-65
2022/11/18 05:18:46;;;;;;;7.95;3.47;;;;;;;7.51;98.80;99787.28;5058763;28;20036;-65
2022/11/18 05:21:12;;;;;;;8.48;3.50;;;;;;;7.50;99.19;99788.97;5064816;28;20025;-65
2022/11/18 05:23:37;;;;;;;7.40;3.33;;;;;;;7.48;98.79;99785.47;5066009;28;20043;-65
2022/11/18 05:26:06;;;;;;;7.28;3.05;;;;;;;7.46;98.65;99795.81;5063253;28;20029;-65
2022/11/18 05:28:32;;;;;;;12.02;4.00;;;;;;;7.43;98.92;99785.41;5065810;28;20031;-65
2022/11/18 05:30:58;;;;;;;8.32;3.40;;;;;;;7.42;99.13;99787.97;5052556;28;20033;-65
2022/11/18 05:33:23;;;;;;;7.68;3.55;;;;;;;7.41;99.04;99797.44;5061775;28;20025;-65
2022/11/18 05:35:48;;;;;;;8.15;3.28;;;;;;;7.41;99.25;99799.16;5063788;28;20017;-65
2022/11/18 05:38:13;;;;;;;8.07;3.47;;;;;;;7.38;98.81;99807.75;5058111;28;20157;-68
2022/11/18 05:40:41;;;;;;;8.68;3.83;;;;;;;7.36;98.87;99800.78;5061692;28;20021;-68
2022/11/18 05:43:11;;;;;;;7.18;3.40;;;;;;;7.34;99.21;99813.72;5064848;28;20036;-68
2022/11/18 05:45:42;;;;;;;9.35;3.60;;;;;;;7.32;99.34;99810.22;5063964;28;20233;-68
2022/11/18 05:48:07;;;;;;;7.93;3.40;;;;;;;7.30;99.16;99819.69;5065470;28;20080;-68
2022/11/18 05:50:35;;;;;;;10.98;3.80;;;;;;;7.29;99.06;99812.75;5059541;28;20025;-68
2022/11/18 05:53:01;;;;;;;7.45;3.55;;;;;;;7.28;99.10;99821.38;5053290;28;20100;-68
2022/11/18 05:55:32;;;;;;;7.78;3.60;;;;;;;7.25;99.19;99819.59;5062892;28;20033;-68
2022/11/18 05:57:57;;;;;;;10.30;3.92;;;;;;;7.22;98.72;99821.25;5055670;28;20179;-68
2022/11/18 06:00:22;;;;;;;8.77;3.22;;;;;;;7.19;99.52;99822.06;5060670;28;20024;-68
2022/11/18 06:02:50;;;;;;;7.80;3.47;;;;;;;7.17;99.20;99828.94;5057966;28;20076;-68
2022/11/18 06:05:17;;;;;;;8.77;3.60;;;;;;;7.14;99.43;99823.69;5055697;28;20021;-68
2022/11/18 06:07:44;;;;;;;7.22;3.35;;;;;;;7.14;99.70;99836.66;5062611;28;20029;-68
2022/11/18 06:10:17;;;;;;;7.05;3.70;;;;;;;7.13;99.71;99838.34;5063115;28;20017;-68
2022/11/18 06:12:46;;;;;;;11.80;5.55;;;;;;;7.10;99.78;99835.69;5063772;28;20160;-68
2022/11/18 06:15:16;;;;;;;9.85;3.97;;;;;;;7.08;99.83;99847.75;5062068;28;20305;-68
2022/11/18 06:17:48;;;;;;;8.93;3.50;;;;;;;7.08;100.00;99850.34;5061865;28;20025;-68
2022/11/18 06:20:15;;;;;;;8.52;3.90;;;;;;;7.08;100.00;99846.84;5050936;28;20017;-68
2022/11/18 06:22:40;;;;;;;10.85;4.25;;;;;;;7.05;99.69;99852.84;5061821;28;20029;-68
2022/11/18 06:25:06;;;;;;;11.52;4.03;;;;;;;7.06;99.54;99866.69;5062747;28;20283;-68
2022/11/18 06:27:32;;;;;;;10.57;4.28;;;;;;;7.02;99.47;99865.72;5062414;28;20120;-68
2022/11/18 06:29:57;;;;;;;8.25;3.80;;;;;;;7.02;100.00;99870.03;5063391;28;20115;-68
2022/11/18 06:32:23;;;;;;;8.85;4.38;;;;;;;7.01;100.00;99871.78;5063671;28;20029;-68
2022/11/18 06:34:48;;;;;;;10.10;4.10;;;;;;;7.00;99.92;99871.72;5049171;28;20021;-68
2022/11/18 06:37:19;;;;;;;7.40;3.97;;;;;;;7.00;100.00;99882.97;5061296;28;20079;-65
2022/11/18 06:39:45;;;;;;;9.45;4.32;;;;;;;7.00;100.00;99877.78;5056576;28;20051;-65
2022/11/18 06:43:37;;;;;;;10.13;4.20;;;;;;;6.98;99.82;99887.25;5035461;28;20132;-65
2022/11/18 06:44:56;;;;;;;8.82;3.85;;;;;;;6.98;100.00;99889.84;5053006;28;20025;-65
2022/11/18 06:47:21;;;;;;;7.65;4.10;;;;;;;6.95;100.00;99890.63;5052123;28;20031;-65
2022/11/18 06:49:46;;;;;;;9.77;4.95;;;;;;;6.94;100.00;99888.88;5050077;28;20036;-65
2022/11/18 06:52:11;;;;;;;10.00;4.60;;;;;;;6.93;100.00;99891.44;5049418;28;20021;-65
2022/11/18 06:54:37;;;;;;;9.55;4.50;;;;;;;6.92;100.00;99900.94;5060455;28;20091;-65
2022/11/18 06:57:02;;;;;;;9.63;4.43;;;;;;;6.90;100.00;99900.00;5051062;28;20096;-65
2022/11/18 06:59:27;;;;;;;9.18;4.47;;;;;;;6.90;100.00;99901.72;5049173;28;20175;-65
2022/11/18 07:01:53;;;;;;;9.05;4.82;;;;;;;6.89;100.00;99915.50;5054573;28;20037;-65
2022/11/18 07:04:18;;;;;;;9.23;4.45;;;;;;;6.89;100.00;99916.34;5051983;28;20171;-65
2022/11/18 07:06:43;;;;;;;8.40;4.47;;;;;;;6.89;100.00;99916.34;5034103;28;20024;-68
2022/11/18 07:09:09;;;;;;;9.73;4.55;;;;;;;6.90;100.00;99922.44;5060987;28;20025;-68
2022/11/18 07:11:34;;;;;;;11.35;5.00;;;;;;;6.90;100.00;99923.31;5063790;28;20252;-68
2022/11/18 07:14:00;;;;;;;11.20;4.90;;;;;;;6.91;100.00;99934.56;5063141;28;20292;-68
2022/11/18 07:16:26;;;;;;;8.70;4.22;;;;;;;6.88;100.00;99937.94;5060952;28;20021;-68
2022/11/18 07:18:53;;;;;;;11.93;5.25;;;;;;;6.88;100.00;99930.16;5061106;28;20021;-68
2022/11/18 07:21:23;;;;;;;9.82;4.78;;;;;;;6.88;100.00;99935.34;5055201;28;20025;-68
2022/11/18 07:23:49;;;;;;;10.75;4.63;;;;;;;6.87;100.00;99943.09;5057388;28;20029;-68
2022/11/18 07:26:16;;;;;;;9.65;4.43;;;;;;;6.85;100.00;99949.91;5061236;28;20085;-68
2022/11/18 07:28:42;;;;;;;9.10;4.00;;;;;;;6.83;100.00;99942.13;5061597;28;20013;-68
2022/11/18 07:31:12;;;;;;;11.75;4.43;;;;;;;6.83;100.00;99946.44;5053969;28;20237;-68
2022/11/18 07:33:39;;;;;;;8.63;4.35;;;;;;;6.83;100.00;99954.19;5059794;28;20313;-68
2022/11/18 07:36:10;;;;;;;10.95;4.40;;;;;;;6.83;100.00;99961.97;5051401;28;20021;-68
2022/11/18 07:38:36;;;;;;;8.77;4.20;;;;;;;6.83;100.00;99967.16;5055604;28;20029;-68
2022/11/18 07:41:15;;;;;;;9.20;4.40;;;;;;;6.82;100.00;99966.25;5059685;28;20262;-68
2022/11/18 07:43:41;;;;;;;8.95;4.60;;;;;;;6.84;100.00;99969.78;5060151;28;20048;-68
2022/11/18 07:46:24;;;;;;;9.23;4.53;;;;;;;6.85;100.00;99975.81;5060435;28;20158;-68
2022/11/18 07:48:52;;;;;;;8.27;4.47;;;;;;;6.86;100.00;99977.56;5053982;28;20087;-68
2022/11/18 07:51:19;;;;;;;11.40;4.32;;;;;;;6.86;100.00;99969.81;5062356;28;20078;-68
2022/11/18 07:53:45;;;;;;;10.10;4.57;;;;;;;6.88;100.00;99981.06;5055034;28;20029;-68
2022/11/18 07:56:11;;;;;;;8.85;4.13;;;;;;;6.91;100.00;99986.34;5060449;28;20274;-68
2022/11/18 07:58:36;;;;;;;8.18;4.07;;;;;;;6.94;100.00;99992.47;5053732;28;20025;-68
2022/11/18 08:01:10;;;;;;;11.45;4.22;;;;;;;6.97;100.00;99992.53;5064013;28;20100;-68
2022/11/18 08:03:35;;;;;;;10.40;4.72;;;;;;;7.00;100.00;99996.06;5065299;28;20024;-68
2022/11/18 08:06:02;;;;;;;11.27;5.00;;;;;;;7.02;100.00;100000.41;5066613;28;20028;-68
2022/11/18 08:08:27;;;;;;;9.40;4.72;;;;;;;7.05;100.00;100002.19;5066981;28;20021;-68
2022/11/18 08:10:57;;;;;;;11.57;4.47;;;;;;;7.07;100.00;100000.53;5067053;28;20025;-68
2022/11/18 08:13:23;;;;;;;12.80;4.80;;;;;;;7.11;100.00;100003.25;5064532;28;20025;-68
2022/11/18 08:15:49;;;;;;;9.90;4.65;;;;;;;7.13;99.82;100004.13;5060639;28;20658;-68
2022/11/18 08:18:14;;;;;;;11.43;4.65;;;;;;;7.14;100.00;100013.66;5063717;28;20029;-68
2022/11/18 08:20:39;;;;;;;7.75;4.30;;;;;;;7.16;100.00;100020.63;5063675;28;20264;-68
2022/11/18 08:23:04;;;;;;;11.25;4.80;;;;;;;7.17;99.22;100024.94;5065043;28;20031;-68
2022/11/18 08:25:30;;;;;;;10.68;4.80;;;;;;;7.14;99.33;100021.44;5062104;28;20009;-68
2022/11/18 08:27:55;;;;;;;12.23;4.78;;;;;;;7.14;99.33;100029.22;5056670;28;20021;-68
2022/11/18 08:30:20;;;;;;;9.23;4.55;;;;;;;7.13;99.33;100035.22;5058864;28;20021;-68
2022/11/18 08:32:46;;;;;;;9.88;5.18;;;;;;;7.15;99.30;100027.50;5063702;28;20087;-69
2022/11/18 08:35:11;;;;;;;12.50;5.95;;;;;;;7.15;99.16;100037.84;5056690;28;20107;-69
2022/11/18 08:37:36;;;;;;;23.38;11.35;;;;;;;7.17;99.22;100033.59;5066461;28;20027;-69
2022/11/18 08:40:02;;;;;;;14.32;6.35;;;;;;;7.20;99.80;100037.97;5065972;28;20203;-69
2022/11/18 08:42:27;;;;;;;17.02;10.68;;;;;;;7.25;99.93;100038.97;5064671;28;20072;-69
2022/11/18 08:44:53;;;;;;;15.05;6.05;;;;;;;7.29;99.41;100031.28;5066291;28;20021;-69
2022/11/18 08:47:18;;;;;;;11.15;6.13;;;;;;;7.31;99.22;100039.09;5063930;28;20060;-69
2022/11/18 08:49:43;;;;;;;12.10;5.80;;;;;;;7.32;98.98;100036.53;5063586;28;20044;-68
2022/11/18 08:52:09;;;;;;;13.88;6.80;;;;;;;7.36;99.23;100045.28;5051168;28;20112;-68
2022/11/18 08:54:34;;;;;;;11.48;6.05;;;;;;;7.38;99.37;100041.00;5051733;28;20033;-68
2022/11/18 08:56:59;;;;;;;13.30;5.35;;;;;;;7.42;98.97;100045.41;5051721;28;20024;-68
2022/11/18 08:59:25;;;;;;;10.25;5.78;;;;;;;7.43;98.82;100047.16;5054296;28;20047;-68
2022/11/18 09:01:51;;;;;;;23.63;12.02;;;;;;;7.46;98.63;100046.38;5058066;28;20024;-68
2022/11/18 09:04:16;;;;;;;12.48;6.32;;;;;;;7.46;98.59;100044.66;5063890;28;20029;-68
2022/11/18 09:06:41;;;;;;;26.88;14.02;;;;;;;7.49;98.76;100051.63;5058809;28;20028;-68
2022/11/18 09:09:07;;;;;;;23.65;12.57;;;;;;;7.52;99.02;100053.38;5064348;28;20017;-68
2022/11/18 09:11:34;;;;;;;12.38;7.10;;;;;;;7.55;98.48;100053.50;5059698;28;20028;-68
2022/11/18 09:14:00;;;;;;;13.75;6.60;;;;;;;7.59;98.93;100060.47;5057831;28;20056;-68
2022/11/18 09:16:27;;;;;;;12.90;6.07;;;;;;;7.62;98.69;100060.56;5043014;28;20136;-68
2022/11/18 09:18:54;;;;;;;15.25;5.78;;;;;;;7.67;99.05;100064.13;5072787;28;20031;-68
2022/11/18 09:21:19;;;;;;;9.80;6.10;;;;;;;7.72;98.90;100061.63;5062699;28;20025;-68
2022/11/18 09:23:45;;;;;;;11.75;6.20;;;;;;;7.77;98.53;100060.03;5061380;28;20025;-68
2022/11/18 09:26:13;;;;;;;12.68;6.53;;;;;;;7.82;98.75;100072.25;5051230;28;20026;-68
2022/11/18 09:28:39;;;;;;;11.13;6.72;;;;;;;7.88;98.17;100074.13;5060523;28;20017;-68
2022/11/18 09:31:09;;;;;;;11.90;6.10;;;;;;;7.92;98.02;100075.03;5050070;28;20028;-68
2022/11/18 09:33:36;;;;;;;12.55;6.00;;;;;;;7.99;98.60;100088.19;5051634;28;20280;-68
2022/11/18 09:36:03;;;;;;;10.75;5.60;;;;;;;8.05;97.66;100082.22;5055385;28;20032;-68
2022/11/18 09:38:29;;;;;;;10.55;5.25;;;;;;;8.08;97.54;100082.34;5061035;28;20032;-68
2022/11/18 09:41:08;;;;;;;13.20;5.43;;;;;;;8.12;97.54;100091.91;5064386;28;20156;-68
2022/11/18 09:44:05;;;;;;;12.43;6.10;;;;;;;8.18;97.29;100098.94;5056458;28;20037;-68
2022/11/18 09:46:58;;;;;;;10.18;5.43;;;;;;;8.24;97.42;100100.78;5057489;28;20032;-68
2022/11/18 09:49:36;;;;;;;12.88;5.68;;;;;;;8.32;96.75;100107.91;5058514;28;20028;-68
2022/11/18 09:52:04;;;;;;;12.27;6.10;;;;;;;8.37;97.15;100115.78;5060816;28;20029;-68
2022/11/18 09:54:33;;;;;;;10.93;5.50;;;;;;;8.44;97.00;100116.78;5054093;28;20013;-68
2022/11/18 09:56:59;;;;;;;11.50;5.38;;;;;;;8.48;96.53;100124.69;5064214;28;20279;-68
2022/11/18 09:59:29;;;;;;;11.75;5.32;;;;;;;8.53;96.08;100122.22;5063991;28;20023;-68
2022/11/18 10:01:57;;;;;;;;;;;;;;;8.60;96.53;100126.66;5061727;28;20029;-68
2022/11/18 10:04:22;;;;;;;14.85;6.10;;;;;;;8.61;96.23;100133.63;5060845;28;19940;-68
2022/11/18 10:06:49;;;;;;;10.45;4.95;;;;;;;8.66;96.00;100136.28;5061319;28;20287;-68
2022/11/18 10:09:38;;;;;;;12.95;5.80;;;;;;;8.70;95.27;100145.91;5050202;28;20033;-68
2022/11/18 10:12:13;;;;;;;14.65;5.85;;;;;;;8.70;94.85;100138.13;5054192;28;20029;-68
2022/11/18 10:14:52;;;;;;;11.35;4.55;;;;;;;8.75;95.32;100139.09;5058800;28;20024;-68
2022/11/18 10:17:32;;;;;;;10.20;4.95;;;;;;;8.79;95.75;100129.63;5057079;28;20019;-68
2022/11/18 10:20:09;;;;;;;11.23;4.82;;;;;;;8.82;95.32;100137.47;5057520;28;20071;-68
2022/11/18 10:22:58;;;;;;;13.73;4.80;;;;;;;8.85;95.63;100146.22;5055963;28;20025;-68
2022/11/18 10:25:23;;;;;;;17.80;7.40;;;;;;;8.88;95.28;100145.41;5059943;28;20106;-68
2022/11/18 10:27:50;;;;;;;23.65;7.97;;;;;;;8.93;94.87;100148.09;5059255;28;20207;-68
2022/11/18 10:30:23;;;;;;;21.95;9.80;;;;;;;9.00;95.88;100147.34;5059965;28;20062;-68
2022/11/18 10:32:58;;;;;;;11.02;5.88;;;;;;;9.07;94.37;100148.31;5054633;28;20221;-68
2022/11/18 10:35:35;;;;;;;14.05;5.65;;;;;;;9.11;94.77;100156.22;5057691;28;20014;-68
2022/11/18 10:38:15;;;;;;;14.57;7.50;;;;;;;9.13;94.21;100157.13;5049528;28;20075;-68
2022/11/18 10:40:45;;;;;;;17.92;8.98;;;;;;;9.13;93.36;100162.31;5054438;28;20140;-68
2022/11/18 10:43:12;;;;;;;17.83;8.05;;;;;;;9.12;93.07;100159.69;5058022;28;20033;-68
2022/11/18 10:45:38;;;;;;;13.00;6.53;;;;;;;9.10;93.13;100161.41;5051585;28;20039;-70
2022/11/18 10:48:08;;;;;;;12.15;5.03;;;;;;;9.10;92.92;100161.41;5047657;28;20025;-70
2022/11/18 10:50:53;;;;;;;20.08;7.63;;;;;;;9.12;92.95;100170.94;5047929;28;20087;-70
2022/11/18 10:53:29;;;;;;;12.65;4.25;;;;;;;9.13;93.02;100164.06;5048606;28;20015;-70
2022/11/18 10:55:58;;;;;;;14.27;5.90;;;;;;;9.14;93.04;100164.06;5049140;28;20036;-70
2022/11/18 10:58:25;;;;;;;24.33;10.85;;;;;;;9.16;92.68;100175.38;5055435;28;20017;-70
2022/11/18 11:00:50;;;;;;;20.23;8.10;;;;;;;9.18;93.01;100172.78;5050519;28;20027;-70
2022/11/18 11:03:33;;;;;;;12.93;5.13;;;;;;;9.19;92.80;100174.56;5047927;28;20092;-71
2022/11/18 11:06:26;;;;;;;10.75;4.60;;;;;;;9.20;92.84;100171.13;5048413;28;20020;-70
2022/11/18 11:08:52;;;;;;;11.25;4.25;;;;;;;9.21;92.88;100180.63;5044270;28;20036;-71
2022/11/18 11:11:29;;;;;;;10.05;5.10;;;;;;;9.22;92.95;100172.00;5047603;28;20176;-70
2022/11/18 11:14:00;;;;;;;11.32;4.55;;;;;;;9.26;92.66;100180.75;5046631;28;20029;-70
2022/11/18 11:16:27;;;;;;;11.43;5.68;;;;;;;9.28;92.78;100176.44;5050039;28;20040;-70
2022/11/18 11:18:58;;;;;;;12.50;5.22;;;;;;;9.31;92.70;100185.19;5050506;28;20055;-71
2022/11/18 11:21:26;;;;;;;22.35;10.10;;;;;;;9.31;92.67;100185.19;5048414;28;20049;-70
2022/11/18 11:23:52;;;;;;;13.73;5.13;;;;;;;9.33;92.63;100183.47;5050516;28;20036;-70
2022/11/18 11:26:36;;;;;;;9.15;4.72;;;;;;;9.35;92.28;100186.97;5048717;28;20171;-70
2022/11/18 11:29:33;;;;;;;10.70;4.95;;;;;;;9.35;92.21;100184.38;5047283;28;20028;-67
2022/11/18 11:32:17;;;;;;;9.98;4.22;;;;;;;9.36;91.87;100180.06;5047336;28;20108;-67
2022/11/18 11:34:53;;;;;;;22.30;8.82;;;;;;;9.39;92.55;100188.78;5049999;28;20048;-67
2022/11/18 11:37:27;;;;;;;44.63;15.77;;;;;;;9.42;91.82;100182.75;5050260;28;20021;-72
2022/11/18 11:40:30;;;;;;;66.05;23.75;;;;;;;9.45;92.05;100197.56;5051878;28;20028;-67
2022/11/18 11:43:54;;;;;;;27.98;16.77;;;;;;;9.48;91.87;100187.19;5050731;28;20025;-67
2022/11/18 11:46:26;;;;;;;16.83;10.55;;;;;;;9.48;92.17;100195.88;5019491;28;20102;-65
2022/11/18 11:48:56;;;;;;;11.60;5.40;;;;;;;9.49;91.67;100197.63;5056853;28;20017;-64
2022/11/18 11:51:28;;;;;;;16.60;8.60;;;;;;;9.48;91.21;100192.41;5054017;28;20024;-64
2022/11/18 11:54:31;;;;;;;13.95;7.05;;;;;;;9.47;91.85;100199.34;5056013;28;20044;-65
2022/11/18 11:57:01;;;;;;;10.00;4.53;;;;;;;9.46;91.66;100207.09;5055920;28;20026;-64